Airfield :
LOGIN :

Register | Disclaimer

   EN    FR    IT 

 










Legend :    VFR   Marginal VFR   IFR   Intensive IFR   Very Intensive IFR
Visi :
Ceiling :
>= 8 km
>= 3000ft
5 to 8 km
1000 to 3000 ft
1500m to 5 km
500 to 1000 ft
800 to 1500m
200 to 500 ft
< 800m
< 200 ft
Symbols :   Thunderstorms  Fog  Heavy snow  Heavy precipitations  Wind > 20 kt
SIGMETs :     Misc.  Thunderstorms  Icing  Turbulence  Mountain Waves  Volcanic Ashes







- Airport Elevation : 13 ft
- IATA code : OST


EBOS - Oostend bruges Int.

CURRENT METAR :
  • 171650Z 23018KT 9999 FEW026 20/14 Q1013 TEMPO 24016G26KT

EXPIRED METARs :
  • 171620Z 23018KT 9999 FEW026 20/15 Q1013 TEMPO 24016G26KT
  • 171550Z 24017KT 9999 SCT026 21/15 Q1013 TEMPO 24016G26KT
  • 171520Z 23018KT 9999 SCT027 21/16 Q1013 TEMPO 24016G26KT
  • 171450Z 24012KT 220V280 9999 SCT020 SCT034 21/17 Q1013 NOSIG
  • 171420Z 22015KT 9999 SCT018 21/18 Q1013 NOSIG

TAF COR TAF EBOS
Valid from the 17 at 12:00 until the 18 at 18:00 UTC


171218Z 1712/1818 24015G25KT 4000 RA SHRA SCT007 BKN012
BECMG 1713/1715 24009KT 9999 NSW FEW020 SCT040
BECMG 1806/1808 26016G27KT
No reported NOTAMs for that airfield.



MET'MAP, your aeronautical weather chart ! - Copyright ORBIFLY December 2007 - Disclaimer

ORBIFLY MET'MAP TEAM :

Programming & Development : Alexandra Zaïnal
Concept & Development : Baudouin d'Aumeries
Co-Development & Prog : Marc-Olivier Méhu
Technical & hardware support : Manuel Goepfert

Contact : metmap@orbifly.com




SOURCES & CREDITS :

   NOAA